26XA weather

Solana North Heliport
Westlake, Texas, United States

Public forecast

Using degrees Fahrenheit for public forecast. Weather courtesy of forecast.io.

Closest aviation weather report (METAR) to Solana North Heliport

Closest report is Fort Worth Alliance Airport, 7.4 nm (13.7 km) W. Retrieved 2020/08/08 07:53 UTC (27 minutes ago):

KAFW 080753Z 19009KT 10SM CLR 29/19 A3002 RMK AO2 SLP146 T02940194

Closest aviation forecast (TAF) to Solana North Heliport

Closest forecast is Fort Worth Alliance Airport, 7.4 nm (13.7 km) W. Retrieved 2020/08/08 06:22 UTC (2 hours ago):

TAF KAFW 080520Z 0806/0906 17011KT P6SM FEW250